sensor_id;sensor_type;location;lat;lon;timestamp;P1;durP1;ratioP1;P2;durP2;ratioP2
63050;SDS011;49136;47.416;19.402;2023-04-06T00:01:28;13.52;;;4.10;;
63050;SDS011;49136;47.416;19.402;2023-04-06T00:03:54;6.75;;;3.50;;
63050;SDS011;49136;47.416;19.402;2023-04-06T00:06:20;11.73;;;4.63;;
63050;SDS011;49136;47.416;19.402;2023-04-06T00:08:45;8.15;;;4.25;;
63050;SDS011;49136;47.416;19.402;2023-04-06T00:11:11;10.45;;;2.85;;
63050;SDS011;49136;47.416;19.402;2023-04-06T00:13:36;8.85;;;3.13;;
63050;SDS011;49136;47.416;19.402;2023-04-06T00:16:02;5.18;;;3.22;;
63050;SDS011;49136;47.416;19.402;2023-04-06T00:18:27;4.30;;;2.35;;
63050;SDS011;49136;47.416;19.402;2023-04-06T00:20:53;4.13;;;2.92;;
63050;SDS011;49136;47.416;19.402;2023-04-06T00:23:18;6.97;;;3.38;;
63050;SDS011;49136;47.416;19.402;2023-04-06T00:25:44;6.80;;;3.38;;
63050;SDS011;49136;47.416;19.402;2023-04-06T00:28:09;8.10;;;3.67;;
63050;SDS011;49136;47.416;19.402;2023-04-06T00:30:35;3.55;;;2.40;;
63050;SDS011;49136;47.416;19.402;2023-04-06T00:33:00;6.88;;;3.70;;
63050;SDS011;49136;47.416;19.402;2023-04-06T00:35:25;4.60;;;2.83;;
63050;SDS011;49136;47.416;19.402;2023-04-06T00:37:51;11.60;;;3.33;;
63050;SDS011;49136;47.416;19.402;2023-04-06T00:40:16;7.70;;;2.67;;
63050;SDS011;49136;47.416;19.402;2023-04-06T00:42:42;6.13;;;3.85;;
63050;SDS011;49136;47.416;19.402;2023-04-06T00:45:08;7.28;;;2.92;;
63050;SDS011;49136;47.416;19.402;2023-04-06T00:47:34;7.88;;;3.13;;
63050;SDS011;49136;47.416;19.402;2023-04-06T00:49:59;11.23;;;3.72;;
63050;SDS011;49136;47.416;19.402;2023-04-06T00:52:25;4.78;;;3.35;;
63050;SDS011;49136;47.416;19.402;2023-04-06T00:54:50;5.50;;;2.22;;
63050;SDS011;49136;47.416;19.402;2023-04-06T00:57:16;9.55;;;4.22;;
63050;SDS011;49136;47.416;19.402;2023-04-06T00:59:42;9.43;;;2.95;;
63050;SDS011;49136;47.416;19.402;2023-04-06T01:02:08;10.07;;;4.15;;
63050;SDS011;49136;47.416;19.402;2023-04-06T01:04:34;4.85;;;3.10;;
63050;SDS011;49136;47.416;19.402;2023-04-06T01:07:00;8.20;;;3.58;;
63050;SDS011;49136;47.416;19.402;2023-04-06T01:09:29;8.15;;;3.70;;
63050;SDS011;49136;47.416;19.402;2023-04-06T01:11:55;7.93;;;3.28;;
63050;SDS011;49136;47.416;19.402;2023-04-06T01:14:22;7.90;;;3.13;;
63050;SDS011;49136;47.416;19.402;2023-04-06T01:16:48;7.57;;;3.25;;
63050;SDS011;49136;47.416;19.402;2023-04-06T01:19:13;12.23;;;4.75;;
63050;SDS011;49136;47.416;19.402;2023-04-06T01:21:39;5.43;;;3.63;;
63050;SDS011;49136;47.416;19.402;2023-04-06T01:24:06;8.55;;;3.95;;
63050;SDS011;49136;47.416;19.402;2023-04-06T01:26:32;12.55;;;4.40;;
63050;SDS011;49136;47.416;19.402;2023-04-06T01:28:58;5.93;;;4.03;;
63050;SDS011;49136;47.416;19.402;2023-04-06T01:31:24;7.97;;;4.20;;
63050;SDS011;49136;47.416;19.402;2023-04-06T01:33:50;14.75;;;5.00;;
63050;SDS011;49136;47.416;19.402;2023-04-06T01:36:16;8.50;;;3.65;;
63050;SDS011;49136;47.416;19.402;2023-04-06T01:38:41;8.50;;;3.90;;
63050;SDS011;49136;47.416;19.402;2023-04-06T01:41:07;12.60;;;4.40;;
63050;SDS011;49136;47.416;19.402;2023-04-06T01:43:33;20.75;;;8.40;;
63050;SDS011;49136;47.416;19.402;2023-04-06T01:45:58;36.10;;;14.80;;
63050;SDS011;49136;47.416;19.402;2023-04-06T01:48:24;45.10;;;15.35;;
63050;SDS011;49136;47.416;19.402;2023-04-06T01:50:50;44.15;;;15.07;;
63050;SDS011;49136;47.416;19.402;2023-04-06T01:53:16;43.75;;;17.90;;
63050;SDS011;49136;47.416;19.402;2023-04-06T01:55:41;43.00;;;13.95;;
63050;SDS011;49136;47.416;19.402;2023-04-06T01:58:06;38.35;;;12.95;;
63050;SDS011;49136;47.416;19.402;2023-04-06T02:00:32;31.45;;;10.15;;
63050;SDS011;49136;47.416;19.402;2023-04-06T02:02:57;50.88;;;16.65;;
63050;SDS011;49136;47.416;19.402;2023-04-06T02:05:23;62.70;;;19.77;;
63050;SDS011;49136;47.416;19.402;2023-04-06T02:07:48;57.25;;;19.55;;
63050;SDS011;49136;47.416;19.402;2023-04-06T02:10:14;47.05;;;16.48;;
63050;SDS011;49136;47.416;19.402;2023-04-06T02:12:40;31.67;;;11.95;;
63050;SDS011;49136;47.416;19.402;2023-04-06T02:15:05;14.18;;;5.75;;
63050;SDS011;49136;47.416;19.402;2023-04-06T02:17:31;6.13;;;3.13;;
63050;SDS011;49136;47.416;19.402;2023-04-06T02:19:57;24.23;;;6.75;;
63050;SDS011;49136;47.416;19.402;2023-04-06T02:22:22;29.33;;;14.55;;
63050;SDS011;49136;47.416;19.402;2023-04-06T02:24:48;100.30;;;33.45;;
63050;SDS011;49136;47.416;19.402;2023-04-06T02:27:14;119.65;;;43.83;;
63050;SDS011;49136;47.416;19.402;2023-04-06T02:29:39;118.70;;;37.78;;
63050;SDS011;49136;47.416;19.402;2023-04-06T02:32:05;125.68;;;39.65;;
63050;SDS011;49136;47.416;19.402;2023-04-06T02:34:30;56.53;;;26.77;;
63050;SDS011;49136;47.416;19.402;2023-04-06T02:36:56;68.40;;;29.90;;
63050;SDS011;49136;47.416;19.402;2023-04-06T02:39:21;63.28;;;24.83;;
63050;SDS011;49136;47.416;19.402;2023-04-06T02:41:47;95.70;;;34.10;;
63050;SDS011;49136;47.416;19.402;2023-04-06T02:44:13;81.93;;;33.85;;
63050;SDS011;49136;47.416;19.402;2023-04-06T02:46:38;95.28;;;32.40;;
63050;SDS011;49136;47.416;19.402;2023-04-06T02:49:04;95.15;;;35.90;;
63050;SDS011;49136;47.416;19.402;2023-04-06T02:51:30;136.18;;;48.70;;
63050;SDS011;49136;47.416;19.402;2023-04-06T02:53:55;109.57;;;43.53;;
63050;SDS011;49136;47.416;19.402;2023-04-06T02:56:20;83.65;;;32.83;;
63050;SDS011;49136;47.416;19.402;2023-04-06T02:58:46;65.93;;;28.90;;
63050;SDS011;49136;47.416;19.402;2023-04-06T03:01:12;81.13;;;26.65;;
63050;SDS011;49136;47.416;19.402;2023-04-06T03:03:37;43.05;;;18.60;;
63050;SDS011;49136;47.416;19.402;2023-04-06T03:06:03;50.00;;;24.70;;
63050;SDS011;49136;47.416;19.402;2023-04-06T03:08:28;50.80;;;24.52;;
63050;SDS011;49136;47.416;19.402;2023-04-06T03:10:54;82.03;;;24.95;;
63050;SDS011;49136;47.416;19.402;2023-04-06T03:13:20;64.80;;;24.13;;
63050;SDS011;49136;47.416;19.402;2023-04-06T03:15:45;67.18;;;22.55;;
63050;SDS011;49136;47.416;19.402;2023-04-06T03:18:11;107.55;;;35.67;;
63050;SDS011;49136;47.416;19.402;2023-04-06T03:20:36;121.60;;;42.25;;
63050;SDS011;49136;47.416;19.402;2023-04-06T03:23:02;118.22;;;38.72;;
63050;SDS011;49136;47.416;19.402;2023-04-06T03:25:27;126.30;;;43.03;;
63050;SDS011;49136;47.416;19.402;2023-04-06T03:27:52;121.45;;;42.50;;
63050;SDS011;49136;47.416;19.402;2023-04-06T03:30:19;82.20;;;38.10;;
63050;SDS011;49136;47.416;19.402;2023-04-06T03:32:45;119.88;;;32.88;;
63050;SDS011;49136;47.416;19.402;2023-04-06T03:35:10;80.68;;;30.45;;
63050;SDS011;49136;47.416;19.402;2023-04-06T03:37:35;76.18;;;29.60;;
63050;SDS011;49136;47.416;19.402;2023-04-06T03:40:01;58.50;;;24.90;;
63050;SDS011;49136;47.416;19.402;2023-04-06T03:42:27;65.30;;;25.30;;
63050;SDS011;49136;47.416;19.402;2023-04-06T03:44:53;96.28;;;34.97;;
63050;SDS011;49136;47.416;19.402;2023-04-06T03:47:19;108.05;;;37.35;;
63050;SDS011;49136;47.416;19.402;2023-04-06T03:49:45;103.20;;;39.28;;
63050;SDS011;49136;47.416;19.402;2023-04-06T03:52:10;107.47;;;36.05;;
63050;SDS011;49136;47.416;19.402;2023-04-06T03:54:36;122.30;;;38.13;;
63050;SDS011;49136;47.416;19.402;2023-04-06T03:57:01;95.72;;;35.33;;
63050;SDS011;49136;47.416;19.402;2023-04-06T03:59:27;113.10;;;43.88;;
63050;SDS011;49136;47.416;19.402;2023-04-06T04:01:52;157.00;;;46.72;;
63050;SDS011;49136;47.416;19.402;2023-04-06T04:04:18;157.95;;;46.50;;
63050;SDS011;49136;47.416;19.402;2023-04-06T04:06:43;83.93;;;40.13;;
63050;SDS011;49136;47.416;19.402;2023-04-06T04:09:09;104.88;;;37.83;;
63050;SDS011;49136;47.416;19.402;2023-04-06T04:11:34;117.53;;;36.58;;
63050;SDS011;49136;47.416;19.402;2023-04-06T04:14:00;120.45;;;43.00;;
63050;SDS011;49136;47.416;19.402;2023-04-06T04:16:25;75.70;;;34.38;;
63050;SDS011;49136;47.416;19.402;2023-04-06T04:18:51;88.68;;;35.63;;
63050;SDS011;49136;47.416;19.402;2023-04-06T04:21:16;95.60;;;36.85;;
63050;SDS011;49136;47.416;19.402;2023-04-06T04:23:41;115.35;;;41.08;;
63050;SDS011;49136;47.416;19.402;2023-04-06T04:26:07;105.68;;;40.60;;
63050;SDS011;49136;47.416;19.402;2023-04-06T04:28:32;97.85;;;37.38;;
63050;SDS011;49136;47.416;19.402;2023-04-06T04:30:58;101.38;;;45.00;;
63050;SDS011;49136;47.416;19.402;2023-04-06T04:33:23;130.50;;;37.53;;
63050;SDS011;49136;47.416;19.402;2023-04-06T04:35:48;101.75;;;42.00;;
63050;SDS011;49136;47.416;19.402;2023-04-06T04:38:14;106.32;;;43.17;;
63050;SDS011;49136;47.416;19.402;2023-04-06T04:40:39;121.70;;;42.85;;
63050;SDS011;49136;47.416;19.402;2023-04-06T04:43:05;100.55;;;39.33;;
63050;SDS011;49136;47.416;19.402;2023-04-06T04:45:30;99.32;;;35.10;;
63050;SDS011;49136;47.416;19.402;2023-04-06T04:47:56;84.15;;;31.52;;
63050;SDS011;49136;47.416;19.402;2023-04-06T04:50:21;118.65;;;37.20;;
63050;SDS011;49136;47.416;19.402;2023-04-06T04:52:47;108.00;;;40.17;;
63050;SDS011;49136;47.416;19.402;2023-04-06T04:55:12;126.40;;;38.20;;
63050;SDS011;49136;47.416;19.402;2023-04-06T04:57:38;70.28;;;33.78;;
63050;SDS011;49136;47.416;19.402;2023-04-06T05:00:04;96.45;;;36.50;;
63050;SDS011;49136;47.416;19.402;2023-04-06T05:02:30;146.05;;;44.65;;
63050;SDS011;49136;47.416;19.402;2023-04-06T05:04:55;109.25;;;38.33;;
63050;SDS011;49136;47.416;19.402;2023-04-06T05:07:21;109.30;;;39.78;;
63050;SDS011;49136;47.416;19.402;2023-04-06T05:09:46;110.25;;;36.67;;
63050;SDS011;49136;47.416;19.402;2023-04-06T05:12:12;138.05;;;44.20;;
63050;SDS011;49136;47.416;19.402;2023-04-06T05:14:37;132.07;;;38.88;;
63050;SDS011;49136;47.416;19.402;2023-04-06T05:17:03;120.43;;;36.80;;
63050;SDS011;49136;47.416;19.402;2023-04-06T05:19:29;106.25;;;33.40;;
63050;SDS011;49136;47.416;19.402;2023-04-06T05:21:55;78.97;;;31.52;;
63050;SDS011;49136;47.416;19.402;2023-04-06T05:24:20;78.03;;;26.60;;
63050;SDS011;49136;47.416;19.402;2023-04-06T05:26:45;55.20;;;22.15;;
63050;SDS011;49136;47.416;19.402;2023-04-06T05:29:11;51.47;;;17.17;;
63050;SDS011;49136;47.416;19.402;2023-04-06T05:31:37;42.90;;;18.38;;
63050;SDS011;49136;47.416;19.402;2023-04-06T05:34:02;35.72;;;16.65;;
63050;SDS011;49136;47.416;19.402;2023-04-06T05:36:28;90.85;;;23.27;;
63050;SDS011;49136;47.416;19.402;2023-04-06T05:38:53;36.15;;;15.95;;
63050;SDS011;49136;47.416;19.402;2023-04-06T05:41:20;35.63;;;15.25;;
63050;SDS011;49136;47.416;19.402;2023-04-06T05:43:45;61.78;;;16.77;;
63050;SDS011;49136;47.416;19.402;2023-04-06T05:46:11;47.40;;;16.38;;
63050;SDS011;49136;47.416;19.402;2023-04-06T05:48:36;34.10;;;15.40;;
63050;SDS011;49136;47.416;19.402;2023-04-06T05:51:01;32.80;;;11.50;;
63050;SDS011;49136;47.416;19.402;2023-04-06T05:53:31;26.65;;;11.10;;
63050;SDS011;49136;47.416;19.402;2023-04-06T05:55:56;45.40;;;14.18;;
63050;SDS011;49136;47.416;19.402;2023-04-06T05:58:22;32.70;;;12.60;;
63050;SDS011;49136;47.416;19.402;2023-04-06T06:00:47;44.20;;;15.60;;
63050;SDS011;49136;47.416;19.402;2023-04-06T06:03:13;39.10;;;13.93;;
63050;SDS011;49136;47.416;19.402;2023-04-06T06:05:38;39.80;;;12.85;;
63050;SDS011;49136;47.416;19.402;2023-04-06T06:08:04;23.75;;;11.50;;
63050;SDS011;49136;47.416;19.402;2023-04-06T06:10:29;28.30;;;12.95;;
63050;SDS011;49136;47.416;19.402;2023-04-06T06:12:55;22.33;;;11.43;;
63050;SDS011;49136;47.416;19.402;2023-04-06T06:15:20;33.47;;;12.50;;
63050;SDS011;49136;47.416;19.402;2023-04-06T06:17:46;35.63;;;12.23;;
63050;SDS011;49136;47.416;19.402;2023-04-06T06:20:11;20.42;;;10.82;;
63050;SDS011;49136;47.416;19.402;2023-04-06T06:22:37;40.97;;;12.88;;
63050;SDS011;49136;47.416;19.402;2023-04-06T06:25:02;43.05;;;13.35;;
63050;SDS011;49136;47.416;19.402;2023-04-06T06:27:28;33.92;;;9.88;;
63050;SDS011;49136;47.416;19.402;2023-04-06T06:29:54;30.75;;;10.13;;
63050;SDS011;49136;47.416;19.402;2023-04-06T06:32:19;29.10;;;8.32;;
63050;SDS011;49136;47.416;19.402;2023-04-06T06:34:45;24.73;;;9.75;;
63050;SDS011;49136;47.416;19.402;2023-04-06T06:37:10;22.55;;;9.55;;
63050;SDS011;49136;47.416;19.402;2023-04-06T06:39:36;21.10;;;9.55;;
63050;SDS011;49136;47.416;19.402;2023-04-06T06:42:01;39.85;;;11.60;;
63050;SDS011;49136;47.416;19.402;2023-04-06T06:44:27;41.47;;;11.15;;
63050;SDS011;49136;47.416;19.402;2023-04-06T06:46:53;36.72;;;12.48;;
63050;SDS011;49136;47.416;19.402;2023-04-06T06:49:19;35.40;;;12.27;;
63050;SDS011;49136;47.416;19.402;2023-04-06T06:51:44;35.92;;;12.60;;
63050;SDS011;49136;47.416;19.402;2023-04-06T06:54:11;26.90;;;12.02;;
63050;SDS011;49136;47.416;19.402;2023-04-06T06:56:37;37.13;;;10.57;;
63050;SDS011;49136;47.416;19.402;2023-04-06T06:59:03;29.42;;;12.05;;
63050;SDS011;49136;47.416;19.402;2023-04-06T07:01:29;28.42;;;11.75;;
63050;SDS011;49136;47.416;19.402;2023-04-06T07:03:54;29.25;;;11.75;;
63050;SDS011;49136;47.416;19.402;2023-04-06T07:06:20;22.25;;;10.35;;
63050;SDS011;49136;47.416;19.402;2023-04-06T07:08:46;21.75;;;9.25;;
63050;SDS011;49136;47.416;19.402;2023-04-06T07:11:11;41.38;;;12.77;;
63050;SDS011;49136;47.416;19.402;2023-04-06T07:13:37;32.15;;;10.63;;
63050;SDS011;49136;47.416;19.402;2023-04-06T07:16:02;32.40;;;10.75;;
63050;SDS011;49136;47.416;19.402;2023-04-06T07:18:28;25.95;;;8.75;;
63050;SDS011;49136;47.416;19.402;2023-04-06T07:20:53;31.65;;;9.15;;
63050;SDS011;49136;47.416;19.402;2023-04-06T07:23:18;29.27;;;10.05;;
63050;SDS011;49136;47.416;19.402;2023-04-06T07:25:44;27.20;;;10.68;;
63050;SDS011;49136;47.416;19.402;2023-04-06T07:28:10;23.33;;;9.15;;
63050;SDS011;49136;47.416;19.402;2023-04-06T07:30:36;27.00;;;8.90;;
63050;SDS011;49136;47.416;19.402;2023-04-06T07:33:02;26.33;;;11.18;;
63050;SDS011;49136;47.416;19.402;2023-04-06T07:35:28;18.60;;;6.97;;
63050;SDS011;49136;47.416;19.402;2023-04-06T07:37:55;26.77;;;8.60;;
63050;SDS011;49136;47.416;19.402;2023-04-06T07:40:21;23.70;;;9.45;;
63050;SDS011;49136;47.416;19.402;2023-04-06T07:42:46;20.02;;;10.05;;
63050;SDS011;49136;47.416;19.402;2023-04-06T07:45:12;17.85;;;7.22;;
63050;SDS011;49136;47.416;19.402;2023-04-06T07:47:38;17.10;;;7.35;;
63050;SDS011;49136;47.416;19.402;2023-04-06T07:50:03;29.27;;;6.93;;
63050;SDS011;49136;47.416;19.402;2023-04-06T07:52:30;13.85;;;7.82;;
63050;SDS011;49136;47.416;19.402;2023-04-06T07:54:57;13.02;;;6.20;;
63050;SDS011;49136;47.416;19.402;2023-04-06T07:57:23;13.35;;;5.22;;
63050;SDS011;49136;47.416;19.402;2023-04-06T07:59:48;13.82;;;6.25;;
63050;SDS011;49136;47.416;19.402;2023-04-06T08:02:13;23.38;;;6.95;;
63050;SDS011;49136;47.416;19.402;2023-04-06T08:04:39;13.15;;;6.93;;
63050;SDS011;49136;47.416;19.402;2023-04-06T08:07:05;23.88;;;7.03;;
63050;SDS011;49136;47.416;19.402;2023-04-06T08:09:30;17.98;;;7.63;;
63050;SDS011;49136;47.416;19.402;2023-04-06T08:11:55;16.30;;;6.40;;
63050;SDS011;49136;47.416;19.402;2023-04-06T08:14:21;23.75;;;6.32;;
63050;SDS011;49136;47.416;19.402;2023-04-06T08:16:46;21.25;;;7.32;;
63050;SDS011;49136;47.416;19.402;2023-04-06T08:19:12;11.18;;;5.60;;
63050;SDS011;49136;47.416;19.402;2023-04-06T08:21:37;17.67;;;6.95;;
63050;SDS011;49136;47.416;19.402;2023-04-06T08:24:04;14.68;;;6.40;;
63050;SDS011;49136;47.416;19.402;2023-04-06T08:26:30;16.38;;;6.90;;
63050;SDS011;49136;47.416;19.402;2023-04-06T08:28:56;15.25;;;5.45;;
63050;SDS011;49136;47.416;19.402;2023-04-06T08:31:21;9.30;;;5.53;;
63050;SDS011;49136;47.416;19.402;2023-04-06T08:33:47;19.67;;;6.43;;
63050;SDS011;49136;47.416;19.402;2023-04-06T08:36:13;11.25;;;6.28;;
63050;SDS011;49136;47.416;19.402;2023-04-06T08:38:40;15.07;;;5.40;;
63050;SDS011;49136;47.416;19.402;2023-04-06T08:41:06;9.75;;;4.90;;
63050;SDS011;49136;47.416;19.402;2023-04-06T08:46:30;13.45;;;5.63;;
63050;SDS011;49136;47.416;19.402;2023-04-06T08:48:56;20.05;;;5.72;;
63050;SDS011;49136;47.416;19.402;2023-04-06T08:51:24;11.35;;;5.75;;
63050;SDS011;49136;47.416;19.402;2023-04-06T08:53:53;21.85;;;6.97;;
63050;SDS011;49136;47.416;19.402;2023-04-06T08:56:21;21.70;;;5.53;;
63050;SDS011;49136;47.416;19.402;2023-04-06T08:58:47;13.50;;;5.55;;
63050;SDS011;49136;47.416;19.402;2023-04-06T09:01:13;11.18;;;5.65;;
63050;SDS011;49136;47.416;19.402;2023-04-06T09:03:41;12.85;;;6.18;;
63050;SDS011;49136;47.416;19.402;2023-04-06T09:06:08;18.85;;;6.65;;
63050;SDS011;49136;47.416;19.402;2023-04-06T09:08:34;11.90;;;4.82;;
63050;SDS011;49136;47.416;19.402;2023-04-06T09:11:04;10.18;;;5.40;;
63050;SDS011;49136;47.416;19.402;2023-04-06T09:13:30;14.75;;;5.97;;
63050;SDS011;49136;47.416;19.402;2023-04-06T09:16:00;21.00;;;5.60;;
63050;SDS011;49136;47.416;19.402;2023-04-06T09:18:32;11.38;;;5.10;;
63050;SDS011;49136;47.416;19.402;2023-04-06T09:21:02;15.25;;;6.60;;
63050;SDS011;49136;47.416;19.402;2023-04-06T09:23:29;11.10;;;4.60;;
63050;SDS011;49136;47.416;19.402;2023-04-06T09:31:16;11.95;;;5.35;;
63050;SDS011;49136;47.416;19.402;2023-04-06T09:33:46;25.97;;;5.60;;
63050;SDS011;49136;47.416;19.402;2023-04-06T09:36:11;7.65;;;4.55;;
63050;SDS011;49136;47.416;19.402;2023-04-06T09:38:50;11.30;;;4.38;;
63050;SDS011;49136;47.416;19.402;2023-04-06T09:41:25;19.48;;;6.07;;
63050;SDS011;49136;47.416;19.402;2023-04-06T09:43:52;15.27;;;6.97;;
63050;SDS011;49136;47.416;19.402;2023-04-06T09:46:27;17.00;;;6.60;;
63050;SDS011;49136;47.416;19.402;2023-04-06T09:48:56;12.23;;;4.78;;
63050;SDS011;49136;47.416;19.402;2023-04-06T09:51:22;15.68;;;6.53;;
63050;SDS011;49136;47.416;19.402;2023-04-06T09:53:52;18.40;;;5.72;;
63050;SDS011;49136;47.416;19.402;2023-04-06T09:56:20;12.80;;;4.43;;
63050;SDS011;49136;47.416;19.402;2023-04-06T09:58:50;18.80;;;6.05;;
63050;SDS011;49136;47.416;19.402;2023-04-06T10:01:21;19.25;;;8.57;;
63050;SDS011;49136;47.416;19.402;2023-04-06T10:03:55;17.75;;;6.47;;
63050;SDS011;49136;47.416;19.402;2023-04-06T10:06:27;16.15;;;5.63;;
63050;SDS011;49136;47.416;19.402;2023-04-06T10:08:57;17.20;;;6.75;;
63050;SDS011;49136;47.416;19.402;2023-04-06T10:11:24;12.25;;;4.90;;
63050;SDS011;49136;47.416;19.402;2023-04-06T10:13:50;18.40;;;9.00;;
63050;SDS011;49136;47.416;19.402;2023-04-06T10:16:16;24.00;;;7.13;;
63050;SDS011;49136;47.416;19.402;2023-04-06T10:18:44;17.70;;;6.40;;
63050;SDS011;49136;47.416;19.402;2023-04-06T10:21:20;16.50;;;6.78;;
63050;SDS011;49136;47.416;19.402;2023-04-06T10:23:51;20.30;;;6.82;;
63050;SDS011;49136;47.416;19.402;2023-04-06T10:26:22;21.50;;;6.95;;
63050;SDS011;49136;47.416;19.402;2023-04-06T10:28:48;11.95;;;5.85;;
63050;SDS011;49136;47.416;19.402;2023-04-06T10:31:14;25.63;;;8.18;;
63050;SDS011;49136;47.416;19.402;2023-04-06T10:33:40;12.80;;;5.55;;
63050;SDS011;49136;47.416;19.402;2023-04-06T10:36:21;17.25;;;5.38;;
63050;SDS011;49136;47.416;19.402;2023-04-06T10:38:53;15.60;;;5.03;;
63050;SDS011;49136;47.416;19.402;2023-04-06T10:41:20;21.40;;;6.65;;
63050;SDS011;49136;47.416;19.402;2023-04-06T10:43:46;18.70;;;8.13;;
63050;SDS011;49136;47.416;19.402;2023-04-06T10:46:24;19.30;;;5.38;;
63050;SDS011;49136;47.416;19.402;2023-04-06T10:48:54;10.73;;;4.93;;
63050;SDS011;49136;47.416;19.402;2023-04-06T10:51:24;17.27;;;7.05;;
63050;SDS011;49136;47.416;19.402;2023-04-06T10:53:52;12.98;;;5.90;;
63050;SDS011;49136;47.416;19.402;2023-04-06T10:56:21;18.40;;;7.18;;
63050;SDS011;49136;47.416;19.402;2023-04-06T10:58:49;17.23;;;5.57;;
63050;SDS011;49136;47.416;19.402;2023-04-06T11:01:18;18.92;;;7.45;;
63050;SDS011;49136;47.416;19.402;2023-04-06T11:06:10;16.65;;;6.05;;
63050;SDS011;49136;47.416;19.402;2023-04-06T11:08:36;14.82;;;6.47;;
63050;SDS011;49136;47.416;19.402;2023-04-06T11:11:10;11.95;;;5.32;;
63050;SDS011;49136;47.416;19.402;2023-04-06T11:16:20;12.98;;;5.53;;
63050;SDS011;49136;47.416;19.402;2023-04-06T11:18:50;18.23;;;6.72;;
63050;SDS011;49136;47.416;19.402;2023-04-06T11:21:15;9.43;;;4.45;;
63050;SDS011;49136;47.416;19.402;2023-04-06T11:23:43;12.95;;;6.15;;
63050;SDS011;49136;47.416;19.402;2023-04-06T11:26:12;15.90;;;4.93;;
63050;SDS011;49136;47.416;19.402;2023-04-06T11:28:39;15.40;;;6.55;;
63050;SDS011;49136;47.416;19.402;2023-04-06T11:31:08;13.85;;;6.60;;
63050;SDS011;49136;47.416;19.402;2023-04-06T11:33:36;15.63;;;6.28;;
63050;SDS011;49136;47.416;19.402;2023-04-06T11:36:02;20.10;;;8.15;;
63050;SDS011;49136;47.416;19.402;2023-04-06T11:38:29;13.98;;;7.00;;
63050;SDS011;49136;47.416;19.402;2023-04-06T11:40:54;12.13;;;5.80;;
63050;SDS011;49136;47.416;19.402;2023-04-06T11:43:29;21.95;;;7.55;;
63050;SDS011;49136;47.416;19.402;2023-04-06T11:46:02;11.77;;;5.90;;
63050;SDS011;49136;47.416;19.402;2023-04-06T11:48:29;15.98;;;6.15;;
63050;SDS011;49136;47.416;19.402;2023-04-06T11:50:55;16.38;;;6.38;;
63050;SDS011;49136;47.416;19.402;2023-04-06T11:53:30;31.23;;;9.68;;
63050;SDS011;49136;47.416;19.402;2023-04-06T11:55:55;15.07;;;7.43;;
63050;SDS011;49136;47.416;19.402;2023-04-06T11:58:21;11.95;;;5.43;;
63050;SDS011;49136;47.416;19.402;2023-04-06T12:00:47;15.70;;;6.57;;
63050;SDS011;49136;47.416;19.402;2023-04-06T12:03:13;20.85;;;7.75;;
63050;SDS011;49136;47.416;19.402;2023-04-06T12:05:39;16.75;;;5.75;;
63050;SDS011;49136;47.416;19.402;2023-04-06T12:08:05;17.00;;;6.28;;
63050;SDS011;49136;47.416;19.402;2023-04-06T12:10:30;9.45;;;4.03;;
63050;SDS011;49136;47.416;19.402;2023-04-06T12:12:55;17.15;;;5.18;;
63050;SDS011;49136;47.416;19.402;2023-04-06T12:15:21;12.13;;;5.18;;
63050;SDS011;49136;47.416;19.402;2023-04-06T12:17:47;11.30;;;5.50;;
63050;SDS011;49136;47.416;19.402;2023-04-06T12:20:12;13.93;;;4.60;;
63050;SDS011;49136;47.416;19.402;2023-04-06T12:22:38;12.38;;;4.95;;
63050;SDS011;49136;47.416;19.402;2023-04-06T12:25:04;11.60;;;5.25;;
63050;SDS011;49136;47.416;19.402;2023-04-06T12:27:31;25.20;;;7.70;;
63050;SDS011;49136;47.416;19.402;2023-04-06T12:29:57;26.00;;;8.93;;
63050;SDS011;49136;47.416;19.402;2023-04-06T12:32:22;11.50;;;5.18;;
63050;SDS011;49136;47.416;19.402;2023-04-06T12:34:48;10.10;;;5.50;;
63050;SDS011;49136;47.416;19.402;2023-04-06T12:37:13;14.75;;;6.15;;
63050;SDS011;49136;47.416;19.402;2023-04-06T12:39:38;11.02;;;4.53;;
63050;SDS011;49136;47.416;19.402;2023-04-06T12:42:04;13.00;;;5.65;;
63050;SDS011;49136;47.416;19.402;2023-04-06T12:44:30;11.82;;;5.78;;
63050;SDS011;49136;47.416;19.402;2023-04-06T12:46:55;14.85;;;5.70;;
63050;SDS011;49136;47.416;19.402;2023-04-06T12:49:21;11.50;;;6.32;;
63050;SDS011;49136;47.416;19.402;2023-04-06T12:51:47;14.90;;;6.60;;
63050;SDS011;49136;47.416;19.402;2023-04-06T12:54:12;11.15;;;5.18;;
63050;SDS011;49136;47.416;19.402;2023-04-06T12:56:38;15.48;;;6.65;;
63050;SDS011;49136;47.416;19.402;2023-04-06T12:59:03;14.60;;;7.05;;
63050;SDS011;49136;47.416;19.402;2023-04-06T13:01:29;11.57;;;3.75;;
63050;SDS011;49136;47.416;19.402;2023-04-06T13:03:55;13.15;;;4.72;;
63050;SDS011;49136;47.416;19.402;2023-04-06T13:06:21;17.33;;;4.65;;
63050;SDS011;49136;47.416;19.402;2023-04-06T13:08:46;12.50;;;4.53;;
63050;SDS011;49136;47.416;19.402;2023-04-06T13:11:14;9.25;;;4.07;;
63050;SDS011;49136;47.416;19.402;2023-04-06T13:13:40;11.40;;;6.55;;
63050;SDS011;49136;47.416;19.402;2023-04-06T13:16:07;10.68;;;6.22;;
63050;SDS011;49136;47.416;19.402;2023-04-06T13:18:33;11.05;;;4.78;;
63050;SDS011;49136;47.416;19.402;2023-04-06T13:20:59;14.80;;;5.20;;
63050;SDS011;49136;47.416;19.402;2023-04-06T13:23:25;10.68;;;4.32;;
63050;SDS011;49136;47.416;19.402;2023-04-06T13:25:58;9.48;;;4.15;;
63050;SDS011;49136;47.416;19.402;2023-04-06T13:28:24;8.18;;;4.05;;
63050;SDS011;49136;47.416;19.402;2023-04-06T13:30:51;17.35;;;5.57;;
63050;SDS011;49136;47.416;19.402;2023-04-06T13:33:16;19.27;;;6.68;;
63050;SDS011;49136;47.416;19.402;2023-04-06T13:35:44;11.23;;;4.65;;
63050;SDS011;49136;47.416;19.402;2023-04-06T13:38:10;12.27;;;3.83;;
63050;SDS011;49136;47.416;19.402;2023-04-06T13:40:38;6.60;;;3.97;;
63050;SDS011;49136;47.416;19.402;2023-04-06T13:43:04;13.90;;;5.85;;
63050;SDS011;49136;47.416;19.402;2023-04-06T13:45:30;9.90;;;4.60;;
63050;SDS011;49136;47.416;19.402;2023-04-06T13:47:55;10.25;;;3.80;;
63050;SDS011;49136;47.416;19.402;2023-04-06T13:50:21;13.05;;;4.95;;
63050;SDS011;49136;47.416;19.402;2023-04-06T13:52:46;22.55;;;7.72;;
63050;SDS011;49136;47.416;19.402;2023-04-06T13:55:12;13.13;;;4.63;;
63050;SDS011;49136;47.416;19.402;2023-04-06T13:57:37;8.38;;;3.00;;
63050;SDS011;49136;47.416;19.402;2023-04-06T14:00:03;14.52;;;6.82;;
63050;SDS011;49136;47.416;19.402;2023-04-06T14:02:28;18.02;;;4.15;;
63050;SDS011;49136;47.416;19.402;2023-04-06T14:04:54;15.45;;;5.68;;
63050;SDS011;49136;47.416;19.402;2023-04-06T14:07:20;12.90;;;4.88;;
63050;SDS011;49136;47.416;19.402;2023-04-06T14:09:47;10.85;;;5.43;;
63050;SDS011;49136;47.416;19.402;2023-04-06T14:12:12;19.05;;;5.07;;
63050;SDS011;49136;47.416;19.402;2023-04-06T14:14:37;20.27;;;6.07;;
63050;SDS011;49136;47.416;19.402;2023-04-06T14:17:03;9.20;;;4.10;;
63050;SDS011;49136;47.416;19.402;2023-04-06T14:19:28;9.30;;;3.65;;
63050;SDS011;49136;47.416;19.402;2023-04-06T14:21:54;10.07;;;4.15;;
63050;SDS011;49136;47.416;19.402;2023-04-06T14:24:19;24.48;;;10.68;;